createdAt,value
2018-12-18T00:00:02.697Z,23.20
2018-12-18T00:02:29.393Z,23.20
2018-12-18T00:04:56.036Z,23.19
2018-12-18T00:07:22.741Z,23.22
2018-12-18T00:09:49.390Z,23.24
2018-12-18T00:12:16.028Z,23.25
2018-12-18T00:14:42.684Z,23.24
2018-12-18T00:17:09.332Z,23.17
2018-12-18T00:19:35.977Z,23.15
2018-12-18T00:22:02.635Z,23.08
2018-12-18T00:24:29.282Z,23.02
2018-12-18T00:26:55.921Z,23.02
2018-12-18T00:29:22.615Z,23.01
2018-12-18T00:31:49.269Z,23.07
2018-12-18T00:34:15.898Z,23.05
2018-12-18T00:36:42.549Z,23.07
2018-12-18T00:39:09.194Z,23.07
2018-12-18T00:41:35.849Z,23.05
2018-12-18T00:44:02.490Z,23.10
2018-12-18T00:46:29.133Z,23.05
2018-12-18T00:48:55.789Z,23.08
2018-12-18T00:51:22.431Z,23.08
2018-12-18T00:53:49.078Z,23.08
2018-12-18T00:56:15.729Z,23.06
2018-12-18T00:58:44.273Z,23.07
2018-12-18T01:01:09.055Z,23.06
2018-12-18T01:03:35.699Z,23.06
2018-12-18T01:06:02.340Z,23.05
2018-12-18T01:08:28.994Z,23.08
2018-12-18T01:10:55.633Z,23.06
2018-12-18T01:13:22.281Z,23.08
2018-12-18T01:15:48.922Z,23.01
2018-12-18T01:18:15.579Z,22.94
2018-12-18T01:20:42.269Z,22.88
2018-12-18T01:23:08.917Z,22.91
2018-12-18T01:25:35.567Z,22.89
2018-12-18T01:28:02.269Z,22.94
2018-12-18T01:30:28.905Z,22.98
2018-12-18T01:32:55.558Z,22.98
2018-12-18T01:35:22.205Z,23.02
2018-12-18T01:37:48.883Z,23.01
2018-12-18T01:40:15.501Z,23.06
2018-12-18T01:42:42.140Z,23.05
2018-12-18T01:45:08.796Z,23.09
2018-12-18T01:47:35.433Z,23.11
2018-12-18T01:50:02.136Z,23.14
2018-12-18T01:52:28.776Z,23.15
2018-12-18T01:54:55.428Z,23.14
2018-12-18T01:57:22.114Z,23.15
2018-12-18T01:59:48.797Z,23.17
2018-12-18T02:02:15.449Z,23.17
2018-12-18T02:04:42.188Z,23.21
2018-12-18T02:07:08.849Z,23.19
2018-12-18T02:09:35.486Z,23.18
2018-12-18T02:12:02.140Z,23.16
2018-12-18T02:14:28.784Z,23.15
2018-12-18T02:16:55.424Z,23.08
2018-12-18T02:19:22.077Z,23.03
2018-12-18T02:21:48.764Z,23.02
2018-12-18T02:24:15.449Z,22.96
2018-12-18T02:26:42.092Z,22.98
2018-12-18T02:29:08.798Z,22.97
2018-12-18T02:31:35.444Z,22.84
2018-12-18T02:34:02.098Z,22.82
2018-12-18T02:36:28.812Z,22.87
2018-12-18T02:38:55.437Z,22.91
2018-12-18T02:41:22.098Z,22.89
2018-12-18T02:43:48.755Z,22.91
2018-12-18T02:46:15.444Z,22.93
2018-12-18T02:48:42.076Z,22.95
2018-12-18T02:51:08.718Z,22.96
2018-12-18T02:53:35.365Z,22.99
2018-12-18T02:56:02.018Z,23.01
2018-12-18T02:58:28.721Z,23.03
2018-12-18T03:00:55.362Z,23.03
2018-12-18T03:03:22.013Z,23.04
2018-12-18T03:05:48.773Z,23.05
2018-12-18T03:08:15.428Z,23.06
2018-12-18T03:10:42.124Z,23.09
2018-12-18T03:13:08.776Z,23.10
2018-12-18T03:15:35.425Z,23.14
2018-12-18T03:18:02.065Z,23.14
2018-12-18T03:20:28.746Z,23.11
2018-12-18T03:22:55.392Z,23.12
2018-12-18T03:25:22.034Z,23.09
2018-12-18T03:27:48.731Z,23.15
2018-12-18T03:30:15.381Z,22.85
2018-12-18T03:32:42.025Z,22.60
2018-12-18T03:35:08.731Z,22.47
2018-12-18T03:37:35.384Z,22.40
2018-12-18T03:40:02.087Z,22.56
2018-12-18T03:42:28.730Z,22.63
2018-12-18T03:44:55.360Z,22.69
2018-12-18T03:47:22.010Z,22.74
2018-12-18T03:49:48.652Z,22.79
2018-12-18T03:52:15.459Z,22.84
2018-12-18T03:54:42.097Z,22.84
2018-12-18T03:57:08.733Z,22.88
2018-12-18T03:59:35.386Z,22.91
2018-12-18T04:02:02.024Z,22.87
2018-12-18T04:04:35.330Z,22.91
2018-12-18T04:06:55.359Z,22.95
2018-12-18T04:09:22.009Z,22.94
2018-12-18T04:11:48.668Z,22.98
2018-12-18T04:14:15.300Z,22.97
2018-12-18T04:16:42.013Z,23.01
2018-12-18T04:19:08.657Z,23.01
2018-12-18T04:21:35.518Z,23.02
2018-12-18T04:24:02.155Z,23.02
2018-12-18T04:26:28.793Z,23.04
2018-12-18T04:28:55.439Z,23.05
2018-12-18T04:31:22.081Z,23.06
2018-12-18T04:33:48.727Z,23.08
2018-12-18T04:36:15.368Z,23.11
2018-12-18T04:38:42.031Z,23.11
2018-12-18T04:41:08.674Z,23.06
2018-12-18T04:43:35.361Z,23.05
2018-12-18T04:46:02.004Z,23.04
2018-12-18T04:48:28.705Z,23.04
2018-12-18T04:50:55.351Z,22.97
2018-12-18T04:53:22.048Z,22.98
2018-12-18T04:55:48.719Z,23.17
2018-12-18T04:58:15.385Z,23.08
2018-12-18T05:00:42.022Z,23.12
2018-12-18T05:03:08.713Z,23.05
2018-12-18T05:05:35.404Z,23.01
2018-12-18T05:08:02.062Z,22.97
2018-12-18T05:10:28.701Z,23.06
2018-12-18T05:12:55.409Z,23.01
2018-12-18T05:15:22.047Z,22.98
2018-12-18T05:17:48.689Z,22.87
2018-12-18T05:20:15.386Z,22.83
2018-12-18T05:22:42.033Z,22.85
2018-12-18T05:25:08.729Z,22.90
2018-12-18T05:27:35.386Z,22.92
2018-12-18T05:30:02.027Z,22.96
2018-12-18T05:32:28.711Z,23.14
2018-12-18T05:34:56.593Z,23.09
2018-12-18T05:37:22.088Z,23.16
2018-12-18T05:39:48.776Z,23.08
2018-12-18T05:42:15.427Z,23.09
2018-12-18T05:44:42.078Z,23.15
2018-12-18T05:47:08.725Z,23.15
2018-12-18T05:49:35.368Z,23.23
2018-12-18T05:52:02.062Z,23.20
2018-12-18T05:54:28.841Z,23.20
2018-12-18T05:56:55.528Z,23.28
2018-12-18T05:59:22.218Z,23.31
2018-12-18T06:01:48.909Z,23.24
2018-12-18T06:04:15.548Z,23.25
2018-12-18T06:06:42.206Z,23.28
2018-12-18T06:09:08.848Z,23.25
2018-12-18T06:11:35.608Z,23.23
2018-12-18T06:14:02.314Z,23.23
2018-12-18T06:16:32.011Z,23.27
2018-12-18T06:18:58.662Z,23.26
2018-12-18T06:21:25.312Z,23.33
2018-12-18T06:23:52.006Z,23.29
2018-12-18T06:26:18.715Z,23.27
2018-12-18T06:28:45.350Z,23.34
2018-12-18T06:31:11.993Z,23.42
2018-12-18T06:33:38.645Z,23.34
2018-12-18T06:36:05.302Z,23.33
2018-12-18T06:38:32.004Z,23.38
2018-12-18T06:40:58.665Z,23.31
2018-12-18T06:43:25.361Z,23.37
2018-12-18T06:45:52.061Z,23.30
2018-12-18T06:48:18.759Z,23.38
2018-12-18T06:50:45.450Z,23.32
2018-12-18T06:53:12.255Z,23.31
2018-12-18T06:55:39.456Z,23.30
2018-12-18T06:58:06.248Z,23.34
2018-12-18T07:00:32.970Z,23.33
2018-12-18T07:02:59.617Z,23.30
2018-12-18T07:05:26.318Z,23.18
2018-12-18T07:07:57.609Z,23.19
2018-12-18T07:10:22.667Z,23.25
2018-12-18T07:12:49.392Z,23.35
2018-12-18T07:15:16.038Z,23.26
2018-12-18T07:17:42.679Z,23.33
2018-12-18T07:20:09.454Z,23.36
2018-12-18T07:22:36.091Z,23.29
2018-12-18T07:25:04.950Z,23.34
2018-12-18T07:27:31.602Z,23.54
2018-12-18T07:29:58.340Z,23.52
2018-12-18T07:32:25.122Z,23.48
2018-12-18T07:34:51.819Z,23.49
2018-12-18T07:37:18.454Z,23.50
2018-12-18T07:39:45.113Z,23.52
2018-12-18T07:42:11.826Z,23.48
2018-12-18T07:44:38.607Z,23.52
2018-12-18T07:47:05.398Z,23.46
2018-12-18T07:49:32.037Z,23.55
2018-12-18T07:51:58.693Z,23.63
2018-12-18T07:54:25.364Z,23.60
2018-12-18T07:56:52.063Z,23.62
2018-12-18T07:59:18.706Z,23.64
2018-12-18T08:01:45.402Z,23.60
2018-12-18T08:04:12.077Z,23.73
2018-12-18T08:06:38.778Z,23.68
2018-12-18T08:09:05.401Z,23.69
2018-12-18T08:11:32.051Z,23.66
2018-12-18T08:13:58.761Z,23.68
2018-12-18T08:16:25.393Z,23.71
2018-12-18T08:18:52.070Z,23.71
2018-12-18T08:21:19.368Z,23.75
2018-12-18T08:23:46.125Z,23.77
2018-12-18T08:26:12.782Z,23.73
2018-12-18T08:28:39.438Z,23.77
2018-12-18T08:31:06.239Z,23.85
2018-12-18T08:33:32.977Z,23.79
2018-12-18T08:35:59.622Z,23.79
2018-12-18T08:38:26.263Z,23.82
2018-12-18T08:40:52.947Z,23.99
2018-12-18T08:43:19.598Z,23.87
2018-12-18T08:45:46.284Z,23.88
2018-12-18T08:48:12.933Z,23.89
2018-12-18T08:50:39.598Z,23.95
2018-12-18T08:53:06.234Z,23.84
2018-12-18T08:55:32.923Z,23.89
2018-12-18T08:57:59.642Z,23.87
2018-12-18T09:00:27.462Z,23.91
2018-12-18T09:02:54.117Z,23.72
2018-12-18T09:05:20.803Z,23.79
2018-12-18T09:07:47.550Z,23.85
2018-12-18T09:10:14.212Z,23.89
2018-12-18T09:12:40.870Z,23.83
2018-12-18T09:15:07.528Z,23.81
2018-12-18T09:17:34.206Z,23.95
2018-12-18T09:20:00.851Z,24.08
2018-12-18T09:22:27.577Z,23.98
2018-12-18T09:24:54.230Z,24.10
2018-12-18T09:27:20.883Z,23.92
2018-12-18T09:29:47.543Z,23.88
2018-12-18T09:32:14.280Z,23.89
2018-12-18T09:34:40.971Z,23.86
2018-12-18T09:37:07.641Z,23.87
2018-12-18T09:39:34.290Z,23.84
2018-12-18T09:42:00.941Z,23.84
2018-12-18T09:44:27.614Z,23.86
2018-12-18T09:46:54.327Z,23.91
2018-12-18T09:49:23.083Z,23.89
2018-12-18T09:51:49.733Z,23.87
2018-12-18T09:54:16.566Z,23.87
2018-12-18T09:56:43.364Z,23.87
2018-12-18T09:59:10.139Z,23.84
2018-12-18T10:01:36.950Z,23.82
2018-12-18T10:04:03.589Z,23.83
2018-12-18T10:06:30.295Z,23.85
2018-12-18T10:08:56.966Z,23.82
2018-12-18T10:11:24.734Z,23.85
2018-12-18T10:13:51.454Z,24.01
2018-12-18T10:16:18.156Z,24.05
2018-12-18T10:18:44.755Z,24.07
2018-12-18T10:21:11.483Z,24.13
2018-12-18T10:23:38.173Z,24.06
2018-12-18T10:26:04.872Z,24.06
2018-12-18T10:28:31.590Z,24.00
2018-12-18T10:30:58.231Z,24.05
2018-12-18T10:33:24.914Z,24.02
2018-12-18T10:35:51.548Z,24.00
2018-12-18T10:38:18.212Z,24.01
2018-12-18T10:40:44.999Z,23.98
2018-12-18T10:43:11.645Z,24.00
2018-12-18T10:45:38.303Z,24.04
2018-12-18T10:48:05.011Z,24.02
2018-12-18T10:50:31.672Z,24.05
2018-12-18T10:52:58.314Z,23.97
2018-12-18T10:55:25.492Z,24.01
2018-12-18T10:57:52.220Z,24.09
2018-12-18T11:00:18.927Z,24.13
2018-12-18T11:02:45.776Z,24.21
2018-12-18T11:05:12.727Z,24.03
2018-12-18T11:07:39.357Z,24.03
2018-12-18T11:10:06.193Z,24.03
2018-12-18T11:12:33.146Z,23.95
2018-12-18T11:14:59.892Z,23.96
2018-12-18T11:17:26.597Z,23.94
2018-12-18T11:19:53.308Z,24.12
2018-12-18T11:22:19.982Z,24.19
2018-12-18T11:24:46.823Z,24.08
2018-12-18T11:27:13.831Z,23.94
2018-12-18T11:29:40.611Z,23.91
2018-12-18T11:32:10.086Z,24.09
2018-12-18T11:34:39.572Z,23.98
2018-12-18T11:37:06.270Z,24.00
2018-12-18T11:39:32.905Z,23.83
2018-12-18T11:41:59.603Z,23.54
2018-12-18T11:44:26.265Z,23.34
2018-12-18T11:46:52.974Z,23.39
2018-12-18T11:49:19.619Z,23.59
2018-12-18T11:51:46.285Z,23.84
2018-12-18T11:54:12.938Z,23.77
2018-12-18T11:56:39.614Z,23.91
2018-12-18T11:59:06.285Z,24.04
2018-12-18T12:01:32.971Z,24.08
2018-12-18T12:03:59.674Z,24.07
2018-12-18T12:06:26.363Z,24.07
2018-12-18T12:08:53.994Z,24.20
2018-12-18T12:11:20.733Z,24.12
2018-12-18T12:13:47.402Z,24.17
2018-12-18T12:16:14.063Z,24.12
2018-12-18T12:18:40.773Z,24.14
2018-12-18T12:21:07.418Z,24.15
2018-12-18T12:23:34.135Z,24.10
2018-12-18T12:26:00.847Z,24.07
2018-12-18T12:28:27.683Z,24.12
2018-12-18T12:30:56.453Z,24.18
2018-12-18T12:33:23.103Z,24.08
2018-12-18T12:35:50.007Z,24.06
2018-12-18T12:38:16.645Z,24.23
2018-12-18T12:40:43.385Z,24.10
2018-12-18T12:43:10.084Z,24.01
2018-12-18T12:45:36.732Z,24.34
2018-12-18T12:48:03.491Z,24.10
2018-12-18T12:50:30.226Z,24.15
2018-12-18T12:52:56.880Z,24.11
2018-12-18T12:55:23.539Z,24.31
2018-12-18T12:57:50.204Z,24.06
2018-12-18T13:00:17.063Z,24.19
2018-12-18T13:02:43.717Z,24.05
2018-12-18T13:05:10.419Z,24.20
2018-12-18T13:07:37.167Z,24.04
2018-12-18T13:10:03.909Z,24.37
2018-12-18T13:12:30.662Z,24.27
2018-12-18T13:14:57.316Z,24.15
2018-12-18T13:17:23.996Z,24.16
2018-12-18T13:19:50.881Z,24.27
2018-12-18T13:22:17.668Z,24.08
2018-12-18T13:24:44.378Z,24.14
2018-12-18T13:27:11.201Z,24.09
2018-12-18T13:29:38.024Z,24.06
2018-12-18T13:32:04.679Z,24.10
2018-12-18T13:34:32.453Z,24.13
2018-12-18T13:36:59.165Z,24.11
2018-12-18T13:39:25.908Z,24.07
2018-12-18T13:41:52.658Z,24.11
2018-12-18T13:44:19.361Z,24.08
2018-12-18T13:46:46.036Z,24.15
2018-12-18T13:49:12.759Z,24.05
2018-12-18T13:51:39.406Z,24.24
2018-12-18T13:54:06.160Z,24.13
2018-12-18T13:56:32.836Z,24.23
2018-12-18T13:59:00.400Z,24.27
2018-12-18T14:01:26.208Z,24.18
2018-12-18T14:03:52.870Z,24.18
2018-12-18T14:06:19.643Z,24.15
2018-12-18T14:08:46.282Z,24.00
2018-12-18T14:11:12.973Z,24.01
2018-12-18T14:13:39.674Z,24.00
2018-12-18T14:16:06.401Z,23.91
2018-12-18T14:18:34.078Z,23.98
2018-12-18T14:21:00.722Z,24.12
2018-12-18T14:23:27.410Z,23.95
2018-12-18T14:25:54.400Z,23.98
2018-12-18T14:28:22.068Z,24.09
2018-12-18T14:30:48.900Z,23.99
2018-12-18T14:33:15.606Z,23.94
2018-12-18T14:35:42.278Z,24.01
2018-12-18T14:38:08.936Z,23.92
2018-12-18T14:40:35.630Z,23.86
2018-12-18T14:43:02.317Z,23.91
2018-12-18T14:45:29.033Z,23.88
2018-12-18T14:47:55.737Z,23.77
2018-12-18T14:50:22.421Z,23.90
2018-12-18T14:52:49.108Z,23.88
2018-12-18T14:55:15.750Z,23.95
2018-12-18T14:57:42.474Z,23.79
2018-12-18T15:00:09.128Z,23.75
2018-12-18T15:02:35.784Z,23.77
2018-12-18T15:05:02.490Z,23.89
2018-12-18T15:07:29.182Z,23.70
2018-12-18T15:09:55.865Z,23.47
2018-12-18T15:12:22.535Z,23.38
2018-12-18T15:14:50.229Z,23.44
2018-12-18T15:17:17.313Z,23.47
2018-12-18T15:19:43.968Z,23.50
2018-12-18T15:22:10.694Z,23.52
2018-12-18T15:24:37.329Z,23.53
2018-12-18T15:27:03.964Z,23.56
2018-12-18T15:29:30.690Z,23.67
2018-12-18T15:31:57.330Z,23.64
2018-12-18T15:34:23.978Z,23.63
2018-12-18T15:36:50.687Z,23.54
2018-12-18T15:39:17.389Z,23.58
2018-12-18T15:41:44.085Z,23.54
2018-12-18T15:44:10.826Z,23.56
2018-12-18T15:46:37.476Z,23.50
2018-12-18T15:49:04.197Z,23.52
2018-12-18T15:51:30.840Z,23.48
2018-12-18T15:53:57.526Z,23.46
2018-12-18T15:56:24.262Z,23.46
2018-12-18T15:58:50.908Z,23.50
2018-12-18T16:01:17.620Z,23.49
2018-12-18T16:03:44.256Z,23.46
2018-12-18T16:06:11.023Z,23.44
2018-12-18T16:08:37.678Z,23.47
2018-12-18T16:11:04.317Z,23.47
2018-12-18T16:13:31.054Z,23.48
2018-12-18T16:15:57.694Z,23.43
2018-12-18T16:18:24.365Z,23.42
2018-12-18T16:20:51.037Z,23.43
2018-12-18T16:23:17.754Z,23.44
2018-12-18T16:25:44.391Z,23.43
2018-12-18T16:28:11.031Z,23.42
2018-12-18T16:30:37.729Z,23.41
2018-12-18T16:33:04.480Z,23.45
2018-12-18T16:35:31.180Z,23.41
2018-12-18T16:37:57.808Z,23.39
2018-12-18T16:40:24.504Z,23.40
2018-12-18T16:42:51.148Z,23.38
2018-12-18T16:45:17.845Z,23.41
2018-12-18T16:47:44.485Z,23.38
2018-12-18T16:50:11.190Z,23.41
2018-12-18T16:52:37.830Z,23.40
2018-12-18T16:55:04.575Z,23.48
2018-12-18T16:57:31.237Z,23.38
2018-12-18T16:59:57.915Z,23.37
2018-12-18T17:02:24.582Z,23.37
2018-12-18T17:04:51.233Z,23.37
2018-12-18T17:07:17.870Z,23.17
2018-12-18T17:09:44.500Z,23.22
2018-12-18T17:12:11.192Z,23.16
2018-12-18T17:14:37.845Z,23.20
2018-12-18T17:17:04.659Z,23.24
2018-12-18T17:19:31.303Z,23.29
2018-12-18T17:21:57.996Z,23.30
2018-12-18T17:24:24.635Z,23.30
2018-12-18T17:26:51.282Z,23.29
2018-12-18T17:29:17.945Z,23.32
2018-12-18T17:31:44.603Z,23.34
2018-12-18T17:34:11.490Z,23.34
2018-12-18T17:36:38.134Z,23.38
2018-12-18T17:39:04.793Z,23.34
2018-12-18T17:41:31.438Z,23.32
2018-12-18T17:43:58.086Z,23.32
2018-12-18T17:46:24.767Z,23.28
2018-12-18T17:48:51.419Z,23.28
2018-12-18T17:51:18.068Z,23.30
2018-12-18T17:53:44.733Z,23.26
2018-12-18T17:56:11.385Z,23.27
2018-12-18T17:58:38.038Z,23.20
2018-12-18T18:01:04.694Z,23.24
2018-12-18T18:03:31.342Z,23.22
2018-12-18T18:05:57.986Z,23.21
2018-12-18T18:08:24.629Z,23.16
2018-12-18T18:10:51.305Z,23.14
2018-12-18T18:13:17.947Z,23.06
2018-12-18T18:15:44.605Z,23.03
2018-12-18T18:18:11.251Z,23.13
2018-12-18T18:20:37.900Z,23.11
2018-12-18T18:23:04.559Z,23.07
2018-12-18T18:25:32.261Z,23.11
2018-12-18T18:27:58.907Z,23.11
2018-12-18T18:30:25.554Z,23.13
2018-12-18T18:32:52.199Z,23.14
2018-12-18T18:35:18.854Z,23.17
2018-12-18T18:37:49.647Z,23.22
2018-12-18T18:40:12.171Z,23.29
2018-12-18T18:42:38.818Z,23.21
2018-12-18T18:45:05.471Z,23.21
2018-12-18T18:47:32.121Z,23.17
2018-12-18T18:49:58.771Z,23.12
2018-12-18T18:52:25.421Z,23.10
2018-12-18T18:54:52.079Z,23.09
2018-12-18T18:57:19.104Z,23.05
2018-12-18T18:59:45.446Z,22.98
2018-12-18T19:02:12.106Z,22.88
2018-12-18T19:04:38.746Z,22.92
2018-12-18T19:07:05.397Z,22.92
2018-12-18T19:09:32.056Z,22.95
2018-12-18T19:11:58.703Z,23.00
2018-12-18T19:14:25.353Z,22.95
2018-12-18T19:16:52.000Z,23.05
2018-12-18T19:19:18.662Z,23.07
2018-12-18T19:21:45.309Z,23.09
2018-12-18T19:24:11.963Z,23.09
2018-12-18T19:26:38.611Z,23.09
2018-12-18T19:29:05.296Z,23.11
2018-12-18T19:31:31.950Z,23.14
2018-12-18T19:33:58.586Z,23.15
2018-12-18T19:36:25.250Z,23.13
2018-12-18T19:38:51.891Z,23.11
2018-12-18T19:41:18.544Z,23.12
2018-12-18T19:43:45.934Z,23.10
2018-12-18T19:46:11.836Z,23.05
2018-12-18T19:48:38.502Z,22.94
2018-12-18T19:51:05.148Z,22.86
2018-12-18T19:53:31.801Z,22.95
2018-12-18T19:55:58.464Z,22.98
2018-12-18T19:58:25.127Z,22.96
2018-12-18T20:00:51.777Z,22.98
2018-12-18T20:03:18.430Z,23.01
2018-12-18T20:05:45.121Z,23.01
2018-12-18T20:08:11.751Z,23.05
2018-12-18T20:10:38.412Z,23.06
2018-12-18T20:13:05.062Z,23.10
2018-12-18T20:15:31.710Z,23.10
2018-12-18T20:17:58.357Z,23.10
2018-12-18T20:20:25.009Z,22.98
2018-12-18T20:22:51.658Z,22.65
2018-12-18T20:25:18.306Z,22.43
2018-12-18T20:27:44.962Z,22.40
2018-12-18T20:30:12.077Z,22.54
2018-12-18T20:32:38.273Z,22.69
2018-12-18T20:35:06.317Z,22.70
2018-12-18T20:37:31.561Z,22.74
2018-12-18T20:40:00.452Z,22.77
2018-12-18T20:42:24.881Z,22.80
2018-12-18T20:44:51.579Z,22.82
2018-12-18T20:47:18.227Z,22.87
2018-12-18T20:49:44.882Z,22.87
2018-12-18T20:52:11.542Z,22.93
2018-12-18T20:54:38.178Z,22.93
2018-12-18T20:57:04.835Z,22.98
2018-12-18T20:59:31.489Z,22.97
2018-12-18T21:01:58.226Z,22.98
2018-12-18T21:04:24.870Z,22.97
2018-12-18T21:06:51.514Z,22.96
2018-12-18T21:09:18.168Z,22.96
2018-12-18T21:11:44.810Z,22.92
2018-12-18T21:14:11.450Z,22.85
2018-12-18T21:16:38.086Z,22.75
2018-12-18T21:19:04.801Z,22.75
2018-12-18T21:21:31.389Z,22.80
2018-12-18T21:23:58.055Z,22.80
2018-12-18T21:26:24.710Z,22.81
2018-12-18T21:28:51.368Z,22.87
2018-12-18T21:31:18.015Z,22.89
2018-12-18T21:33:44.709Z,22.91
2018-12-18T21:36:11.354Z,22.93
2018-12-18T21:38:38.004Z,22.95
2018-12-18T21:41:04.653Z,22.96
2018-12-18T21:43:31.342Z,22.99
2018-12-18T21:45:57.989Z,23.00
2018-12-18T21:48:24.674Z,23.02
2018-12-18T21:50:51.337Z,22.98
2018-12-18T21:53:18.035Z,23.00
2018-12-18T21:55:44.676Z,23.03
2018-12-18T21:58:11.315Z,22.96
2018-12-18T22:00:37.961Z,22.89
2018-12-18T22:03:04.609Z,22.85
2018-12-18T22:05:31.258Z,22.89
2018-12-18T22:07:57.914Z,22.88
2018-12-18T22:10:24.558Z,22.84
2018-12-18T22:12:51.260Z,22.89
2018-12-18T22:15:17.902Z,22.90
2018-12-18T22:17:44.541Z,22.90
2018-12-18T22:20:11.209Z,22.91
2018-12-18T22:22:37.846Z,22.94
2018-12-18T22:25:04.488Z,22.94
2018-12-18T22:27:31.176Z,22.96
2018-12-18T22:29:57.822Z,22.98
2018-12-18T22:32:24.525Z,22.97
2018-12-18T22:34:51.161Z,22.97
2018-12-18T22:37:17.802Z,23.01
2018-12-18T22:39:44.454Z,23.00
2018-12-18T22:42:11.103Z,23.00
2018-12-18T22:44:37.745Z,22.97
2018-12-18T22:47:04.377Z,22.97
2018-12-18T22:49:33.163Z,22.98
2018-12-18T22:51:59.821Z,22.96
2018-12-18T22:54:26.468Z,22.94
2018-12-18T22:56:53.125Z,22.89
2018-12-18T22:59:19.780Z,22.80
2018-12-18T23:01:46.420Z,22.83
2018-12-18T23:04:13.104Z,22.78
2018-12-18T23:06:39.741Z,22.78
2018-12-18T23:09:06.439Z,22.81
2018-12-18T23:11:33.135Z,22.85
2018-12-18T23:13:59.784Z,22.86
2018-12-18T23:16:26.436Z,22.87
2018-12-18T23:18:53.081Z,22.90
2018-12-18T23:21:19.734Z,22.93
2018-12-18T23:23:46.402Z,22.94
2018-12-18T23:26:13.056Z,22.94
2018-12-18T23:28:39.714Z,22.94
2018-12-18T23:31:06.354Z,22.97
2018-12-18T23:33:33.006Z,23.01
2018-12-18T23:35:59.648Z,22.98
2018-12-18T23:38:26.296Z,22.98
2018-12-18T23:40:52.940Z,22.92
2018-12-18T23:43:19.594Z,22.85
2018-12-18T23:45:46.234Z,22.79
2018-12-18T23:48:12.881Z,22.77
2018-12-18T23:50:39.586Z,22.76
2018-12-18T23:53:06.244Z,22.79
2018-12-18T23:55:32.894Z,22.80
2018-12-18T23:57:59.590Z,22.84
